sensor_id;sensor_type;location;lat;lon;timestamp;P1;durP1;ratioP1;P2;durP2;ratioP2
71125;SDS011;58785;55.566;38.058;2022-10-16T00:01:23;13.32;;;3.80;;
71125;SDS011;58785;55.566;38.058;2022-10-16T00:03:51;12.10;;;3.73;;
71125;SDS011;58785;55.566;38.058;2022-10-16T00:06:18;11.68;;;4.18;;
71125;SDS011;58785;55.566;38.058;2022-10-16T00:08:45;13.48;;;4.10;;
71125;SDS011;58785;55.566;38.058;2022-10-16T00:13:47;11.85;;;5.22;;
71125;SDS011;58785;55.566;38.058;2022-10-16T00:16:15;15.77;;;4.30;;
71125;SDS011;58785;55.566;38.058;2022-10-16T00:18:41;11.95;;;4.35;;
71125;SDS011;58785;55.566;38.058;2022-10-16T00:21:08;15.88;;;5.25;;
71125;SDS011;58785;55.566;38.058;2022-10-16T00:24:01;13.93;;;4.90;;
71125;SDS011;58785;55.566;38.058;2022-10-16T00:26:30;13.18;;;4.70;;
71125;SDS011;58785;55.566;38.058;2022-10-16T00:28:57;12.27;;;4.87;;
71125;SDS011;58785;55.566;38.058;2022-10-16T00:31:23;14.20;;;5.20;;
71125;SDS011;58785;55.566;38.058;2022-10-16T00:33:49;12.68;;;5.22;;
71125;SDS011;58785;55.566;38.058;2022-10-16T00:36:17;9.38;;;3.90;;
71125;SDS011;58785;55.566;38.058;2022-10-16T00:38:44;13.37;;;5.10;;
71125;SDS011;58785;55.566;38.058;2022-10-16T00:41:12;14.80;;;5.10;;
71125;SDS011;58785;55.566;38.058;2022-10-16T00:43:41;11.00;;;4.35;;
71125;SDS011;58785;55.566;38.058;2022-10-16T00:46:19;13.57;;;5.70;;
71125;SDS011;58785;55.566;38.058;2022-10-16T00:49:10;15.88;;;5.50;;
71125;SDS011;58785;55.566;38.058;2022-10-16T00:51:37;12.73;;;5.57;;
71125;SDS011;58785;55.566;38.058;2022-10-16T00:54:12;18.10;;;6.65;;
71125;SDS011;58785;55.566;38.058;2022-10-16T00:56:40;16.00;;;5.45;;
71125;SDS011;58785;55.566;38.058;2022-10-16T00:59:09;11.48;;;4.20;;
71125;SDS011;58785;55.566;38.058;2022-10-16T01:01:40;11.23;;;4.00;;
71125;SDS011;58785;55.566;38.058;2022-10-16T01:04:06;11.30;;;4.23;;
71125;SDS011;58785;55.566;38.058;2022-10-16T01:14:48;13.32;;;4.00;;
71125;SDS011;58785;55.566;38.058;2022-10-16T01:17:28;13.68;;;4.20;;
71125;SDS011;58785;55.566;38.058;2022-10-16T01:23:19;9.03;;;3.60;;
71125;SDS011;58785;55.566;38.058;2022-10-16T01:28:25;9.52;;;3.35;;
71125;SDS011;58785;55.566;38.058;2022-10-16T01:30:58;11.48;;;3.75;;
71125;SDS011;58785;55.566;38.058;2022-10-16T01:33:28;12.07;;;3.30;;
71125;SDS011;58785;55.566;38.058;2022-10-16T01:36:03;13.47;;;3.73;;
71125;SDS011;58785;55.566;38.058;2022-10-16T01:38:35;10.32;;;3.97;;
71125;SDS011;58785;55.566;38.058;2022-10-16T01:41:06;11.32;;;4.28;;
71125;SDS011;58785;55.566;38.058;2022-10-16T01:43:37;10.02;;;3.80;;
71125;SDS011;58785;55.566;38.058;2022-10-16T01:46:10;10.60;;;3.47;;
71125;SDS011;58785;55.566;38.058;2022-10-16T01:48:41;9.97;;;3.63;;
71125;SDS011;58785;55.566;38.058;2022-10-16T01:51:08;8.43;;;3.60;;
71125;SDS011;58785;55.566;38.058;2022-10-16T01:53:36;12.18;;;3.60;;
71125;SDS011;58785;55.566;38.058;2022-10-16T01:56:05;11.27;;;4.13;;
71125;SDS011;58785;55.566;38.058;2022-10-16T01:58:35;10.35;;;3.53;;
71125;SDS011;58785;55.566;38.058;2022-10-16T02:01:05;9.95;;;3.17;;
71125;SDS011;58785;55.566;38.058;2022-10-16T02:03:34;11.60;;;3.60;;
71125;SDS011;58785;55.566;38.058;2022-10-16T02:06:06;8.50;;;3.20;;
71125;SDS011;58785;55.566;38.058;2022-10-16T02:08:32;10.43;;;3.20;;
71125;SDS011;58785;55.566;38.058;2022-10-16T02:10:59;9.88;;;3.50;;
71125;SDS011;58785;55.566;38.058;2022-10-16T02:13:28;16.08;;;3.70;;
71125;SDS011;58785;55.566;38.058;2022-10-16T02:15:58;10.13;;;3.42;;
71125;SDS011;58785;55.566;38.058;2022-10-16T02:18:23;9.90;;;3.10;;
71125;SDS011;58785;55.566;38.058;2022-10-16T02:20:58;10.07;;;3.53;;
71125;SDS011;58785;55.566;38.058;2022-10-16T02:24:15;9.75;;;2.92;;
71125;SDS011;58785;55.566;38.058;2022-10-16T02:26:19;12.27;;;3.25;;
71125;SDS011;58785;55.566;38.058;2022-10-16T02:28:55;11.50;;;3.67;;
71125;SDS011;58785;55.566;38.058;2022-10-16T02:31:27;8.98;;;3.00;;
71125;SDS011;58785;55.566;38.058;2022-10-16T02:33:56;10.60;;;3.07;;
71125;SDS011;58785;55.566;38.058;2022-10-16T02:36:25;9.38;;;3.20;;
71125;SDS011;58785;55.566;38.058;2022-10-16T02:38:51;7.65;;;3.20;;
71125;SDS011;58785;55.566;38.058;2022-10-16T02:41:18;10.05;;;3.42;;
71125;SDS011;58785;55.566;38.058;2022-10-16T02:43:46;10.13;;;3.50;;
71125;SDS011;58785;55.566;38.058;2022-10-16T02:46:12;9.77;;;3.30;;
71125;SDS011;58785;55.566;38.058;2022-10-16T02:48:37;8.50;;;3.17;;
71125;SDS011;58785;55.566;38.058;2022-10-16T02:51:04;11.85;;;3.20;;
71125;SDS011;58785;55.566;38.058;2022-10-16T02:53:30;9.43;;;3.47;;
71125;SDS011;58785;55.566;38.058;2022-10-16T02:55:55;8.30;;;3.40;;
71125;SDS011;58785;55.566;38.058;2022-10-16T02:58:20;10.20;;;3.60;;
71125;SDS011;58785;55.566;38.058;2022-10-16T03:00:46;8.32;;;3.22;;
71125;SDS011;58785;55.566;38.058;2022-10-16T03:03:12;10.63;;;3.37;;
71125;SDS011;58785;55.566;38.058;2022-10-16T03:05:37;8.83;;;3.70;;
71125;SDS011;58785;55.566;38.058;2022-10-16T03:08:03;9.38;;;3.33;;
71125;SDS011;58785;55.566;38.058;2022-10-16T03:10:28;10.17;;;3.43;;
71125;SDS011;58785;55.566;38.058;2022-10-16T03:12:54;12.70;;;4.00;;
71125;SDS011;58785;55.566;38.058;2022-10-16T03:15:19;10.32;;;3.70;;
71125;SDS011;58785;55.566;38.058;2022-10-16T03:17:45;10.40;;;3.87;;
71125;SDS011;58785;55.566;38.058;2022-10-16T03:20:10;9.97;;;3.47;;
71125;SDS011;58785;55.566;38.058;2022-10-16T03:22:36;9.32;;;3.40;;
71125;SDS011;58785;55.566;38.058;2022-10-16T03:25:01;17.47;;;3.30;;
71125;SDS011;58785;55.566;38.058;2022-10-16T03:27:29;7.10;;;2.88;;
71125;SDS011;58785;55.566;38.058;2022-10-16T03:29:55;9.03;;;3.30;;
71125;SDS011;58785;55.566;38.058;2022-10-16T03:32:20;9.60;;;3.70;;
71125;SDS011;58785;55.566;38.058;2022-10-16T03:34:46;8.25;;;3.03;;
71125;SDS011;58785;55.566;38.058;2022-10-16T03:37:12;8.55;;;3.45;;
71125;SDS011;58785;55.566;38.058;2022-10-16T03:39:38;8.43;;;3.13;;
71125;SDS011;58785;55.566;38.058;2022-10-16T03:42:04;8.50;;;3.25;;
71125;SDS011;58785;55.566;38.058;2022-10-16T03:44:29;11.17;;;3.40;;
71125;SDS011;58785;55.566;38.058;2022-10-16T03:46:55;8.77;;;3.75;;
71125;SDS011;58785;55.566;38.058;2022-10-16T03:49:20;10.73;;;4.10;;
71125;SDS011;58785;55.566;38.058;2022-10-16T03:51:46;10.70;;;3.03;;
71125;SDS011;58785;55.566;38.058;2022-10-16T03:54:11;9.65;;;3.38;;
71125;SDS011;58785;55.566;38.058;2022-10-16T03:56:37;9.03;;;3.60;;
71125;SDS011;58785;55.566;38.058;2022-10-16T03:59:03;10.38;;;3.80;;
71125;SDS011;58785;55.566;38.058;2022-10-16T04:01:29;12.50;;;3.90;;
71125;SDS011;58785;55.566;38.058;2022-10-16T04:03:54;11.35;;;3.38;;
71125;SDS011;58785;55.566;38.058;2022-10-16T04:06:20;11.23;;;3.50;;
71125;SDS011;58785;55.566;38.058;2022-10-16T04:08:45;10.23;;;4.00;;
71125;SDS011;58785;55.566;38.058;2022-10-16T04:11:11;14.20;;;4.70;;
71125;SDS011;58785;55.566;38.058;2022-10-16T04:13:36;12.67;;;4.13;;
71125;SDS011;58785;55.566;38.058;2022-10-16T04:16:02;8.53;;;3.63;;
71125;SDS011;58785;55.566;38.058;2022-10-16T04:18:28;14.63;;;4.25;;
71125;SDS011;58785;55.566;38.058;2022-10-16T04:20:54;13.50;;;4.80;;
71125;SDS011;58785;55.566;38.058;2022-10-16T04:23:19;8.30;;;3.67;;
71125;SDS011;58785;55.566;38.058;2022-10-16T04:25:46;8.55;;;3.70;;
71125;SDS011;58785;55.566;38.058;2022-10-16T04:28:11;13.23;;;4.23;;
71125;SDS011;58785;55.566;38.058;2022-10-16T04:30:37;13.43;;;4.55;;
71125;SDS011;58785;55.566;38.058;2022-10-16T04:33:04;14.17;;;4.70;;
71125;SDS011;58785;55.566;38.058;2022-10-16T04:35:30;11.88;;;4.20;;
71125;SDS011;58785;55.566;38.058;2022-10-16T04:37:57;13.07;;;4.85;;
71125;SDS011;58785;55.566;38.058;2022-10-16T04:40:23;12.60;;;4.67;;
71125;SDS011;58785;55.566;38.058;2022-10-16T04:42:49;11.65;;;4.30;;
71125;SDS011;58785;55.566;38.058;2022-10-16T04:45:15;11.65;;;4.60;;
71125;SDS011;58785;55.566;38.058;2022-10-16T04:47:40;13.23;;;4.73;;
71125;SDS011;58785;55.566;38.058;2022-10-16T04:50:06;12.50;;;4.80;;
71125;SDS011;58785;55.566;38.058;2022-10-16T04:52:32;14.30;;;4.83;;
71125;SDS011;58785;55.566;38.058;2022-10-16T04:54:58;12.73;;;4.72;;
71125;SDS011;58785;55.566;38.058;2022-10-16T04:57:27;10.27;;;4.53;;
71125;SDS011;58785;55.566;38.058;2022-10-16T04:59:53;12.38;;;4.68;;
71125;SDS011;58785;55.566;38.058;2022-10-16T05:02:18;10.23;;;4.93;;
71125;SDS011;58785;55.566;38.058;2022-10-16T05:04:44;11.43;;;4.90;;
71125;SDS011;58785;55.566;38.058;2022-10-16T05:07:10;10.30;;;4.43;;
71125;SDS011;58785;55.566;38.058;2022-10-16T05:09:35;10.65;;;4.32;;
71125;SDS011;58785;55.566;38.058;2022-10-16T05:12:01;15.10;;;5.33;;
71125;SDS011;58785;55.566;38.058;2022-10-16T05:14:28;15.50;;;4.43;;
71125;SDS011;58785;55.566;38.058;2022-10-16T05:16:54;12.52;;;4.20;;
71125;SDS011;58785;55.566;38.058;2022-10-16T05:19:20;12.80;;;4.53;;
71125;SDS011;58785;55.566;38.058;2022-10-16T05:21:45;13.25;;;5.22;;
71125;SDS011;58785;55.566;38.058;2022-10-16T05:24:11;12.00;;;4.50;;
71125;SDS011;58785;55.566;38.058;2022-10-16T05:26:37;11.82;;;4.60;;
71125;SDS011;58785;55.566;38.058;2022-10-16T05:29:02;12.00;;;4.20;;
71125;SDS011;58785;55.566;38.058;2022-10-16T05:31:28;10.75;;;4.22;;
71125;SDS011;58785;55.566;38.058;2022-10-16T05:33:57;9.87;;;3.70;;
71125;SDS011;58785;55.566;38.058;2022-10-16T05:36:24;11.85;;;3.45;;
71125;SDS011;58785;55.566;38.058;2022-10-16T05:38:50;9.93;;;3.23;;
71125;SDS011;58785;55.566;38.058;2022-10-16T05:41:16;12.02;;;3.45;;
71125;SDS011;58785;55.566;38.058;2022-10-16T05:43:46;11.18;;;3.67;;
71125;SDS011;58785;55.566;38.058;2022-10-16T05:46:13;9.55;;;3.25;;
71125;SDS011;58785;55.566;38.058;2022-10-16T05:48:39;15.27;;;3.73;;
71125;SDS011;58785;55.566;38.058;2022-10-16T05:51:05;10.48;;;3.92;;
71125;SDS011;58785;55.566;38.058;2022-10-16T05:53:32;8.57;;;3.47;;
71125;SDS011;58785;55.566;38.058;2022-10-16T05:55:59;9.93;;;3.80;;
71125;SDS011;58785;55.566;38.058;2022-10-16T05:58:30;8.30;;;2.97;;
71125;SDS011;58785;55.566;38.058;2022-10-16T06:00:59;10.07;;;3.75;;
71125;SDS011;58785;55.566;38.058;2022-10-16T06:03:26;10.27;;;3.60;;
71125;SDS011;58785;55.566;38.058;2022-10-16T06:05:52;9.57;;;3.27;;
71125;SDS011;58785;55.566;38.058;2022-10-16T06:08:19;9.98;;;3.38;;
71125;SDS011;58785;55.566;38.058;2022-10-16T06:10:46;8.88;;;3.55;;
71125;SDS011;58785;55.566;38.058;2022-10-16T06:13:12;7.88;;;3.30;;
71125;SDS011;58785;55.566;38.058;2022-10-16T06:15:40;8.88;;;3.15;;
71125;SDS011;58785;55.566;38.058;2022-10-16T06:18:08;8.00;;;3.13;;
71125;SDS011;58785;55.566;38.058;2022-10-16T06:20:34;10.27;;;3.60;;
71125;SDS011;58785;55.566;38.058;2022-10-16T06:23:00;12.60;;;3.22;;
71125;SDS011;58785;55.566;38.058;2022-10-16T06:25:26;9.73;;;3.33;;
71125;SDS011;58785;55.566;38.058;2022-10-16T06:27:51;9.25;;;4.00;;
71125;SDS011;58785;55.566;38.058;2022-10-16T06:30:17;9.10;;;2.93;;
71125;SDS011;58785;55.566;38.058;2022-10-16T06:32:42;8.57;;;2.60;;
71125;SDS011;58785;55.566;38.058;2022-10-16T06:35:08;11.68;;;3.38;;
71125;SDS011;58785;55.566;38.058;2022-10-16T06:37:33;10.53;;;3.70;;
71125;SDS011;58785;55.566;38.058;2022-10-16T06:39:59;10.90;;;3.43;;
71125;SDS011;58785;55.566;38.058;2022-10-16T06:42:25;10.40;;;3.03;;
71125;SDS011;58785;55.566;38.058;2022-10-16T06:44:51;8.18;;;3.40;;
71125;SDS011;58785;55.566;38.058;2022-10-16T06:47:16;10.40;;;3.40;;
71125;SDS011;58785;55.566;38.058;2022-10-16T06:49:42;13.30;;;3.77;;
71125;SDS011;58785;55.566;38.058;2022-10-16T06:52:07;9.85;;;3.55;;
71125;SDS011;58785;55.566;38.058;2022-10-16T06:54:33;8.57;;;3.10;;
71125;SDS011;58785;55.566;38.058;2022-10-16T06:56:58;13.60;;;3.63;;
71125;SDS011;58785;55.566;38.058;2022-10-16T06:59:25;19.23;;;4.13;;
71125;SDS011;58785;55.566;38.058;2022-10-16T07:01:50;9.25;;;3.70;;
71125;SDS011;58785;55.566;38.058;2022-10-16T07:04:16;10.33;;;3.63;;
71125;SDS011;58785;55.566;38.058;2022-10-16T07:06:41;9.07;;;3.10;;
71125;SDS011;58785;55.566;38.058;2022-10-16T07:09:09;8.47;;;3.30;;
71125;SDS011;58785;55.566;38.058;2022-10-16T07:11:36;8.32;;;2.85;;
71125;SDS011;58785;55.566;38.058;2022-10-16T07:14:03;11.90;;;2.80;;
71125;SDS011;58785;55.566;38.058;2022-10-16T07:16:37;11.35;;;3.17;;
71125;SDS011;58785;55.566;38.058;2022-10-16T07:19:03;9.93;;;3.58;;
71125;SDS011;58785;55.566;38.058;2022-10-16T07:21:29;8.30;;;3.33;;
71125;SDS011;58785;55.566;38.058;2022-10-16T07:24:00;9.57;;;3.22;;
71125;SDS011;58785;55.566;38.058;2022-10-16T07:26:26;8.70;;;3.37;;
71125;SDS011;58785;55.566;38.058;2022-10-16T07:28:53;8.15;;;3.58;;
71125;SDS011;58785;55.566;38.058;2022-10-16T07:31:19;9.85;;;3.20;;
71125;SDS011;58785;55.566;38.058;2022-10-16T07:33:46;8.67;;;3.67;;
71125;SDS011;58785;55.566;38.058;2022-10-16T07:36:14;8.35;;;3.55;;
71125;SDS011;58785;55.566;38.058;2022-10-16T07:38:40;9.50;;;3.20;;
71125;SDS011;58785;55.566;38.058;2022-10-16T07:41:08;10.48;;;3.53;;
71125;SDS011;58785;55.566;38.058;2022-10-16T07:43:35;10.13;;;3.63;;
71125;SDS011;58785;55.566;38.058;2022-10-16T07:46:01;8.10;;;3.23;;
71125;SDS011;58785;55.566;38.058;2022-10-16T07:48:28;10.97;;;3.90;;
71125;SDS011;58785;55.566;38.058;2022-10-16T07:50:59;19.77;;;5.05;;
71125;SDS011;58785;55.566;38.058;2022-10-16T07:53:25;11.75;;;3.65;;
71125;SDS011;58785;55.566;38.058;2022-10-16T07:55:51;11.98;;;5.00;;
71125;SDS011;58785;55.566;38.058;2022-10-16T07:58:17;9.70;;;3.90;;
71125;SDS011;58785;55.566;38.058;2022-10-16T08:00:43;21.17;;;11.10;;
71125;SDS011;58785;55.566;38.058;2022-10-16T08:03:08;23.93;;;6.43;;
71125;SDS011;58785;55.566;38.058;2022-10-16T08:05:34;12.93;;;4.17;;
71125;SDS011;58785;55.566;38.058;2022-10-16T08:08:00;9.57;;;3.53;;
71125;SDS011;58785;55.566;38.058;2022-10-16T08:10:27;10.25;;;3.38;;
71125;SDS011;58785;55.566;38.058;2022-10-16T08:12:53;9.23;;;3.58;;
71125;SDS011;58785;55.566;38.058;2022-10-16T08:15:19;22.43;;;7.70;;
71125;SDS011;58785;55.566;38.058;2022-10-16T08:17:54;27.73;;;8.73;;
71125;SDS011;58785;55.566;38.058;2022-10-16T08:20:20;22.65;;;6.10;;
71125;SDS011;58785;55.566;38.058;2022-10-16T08:22:46;36.57;;;9.57;;
71125;SDS011;58785;55.566;38.058;2022-10-16T08:25:11;106.13;;;20.80;;
71125;SDS011;58785;55.566;38.058;2022-10-16T08:27:37;174.40;;;27.52;;
71125;SDS011;58785;55.566;38.058;2022-10-16T08:30:03;31.60;;;7.63;;
71125;SDS011;58785;55.566;38.058;2022-10-16T08:32:29;14.43;;;5.50;;
71125;SDS011;58785;55.566;38.058;2022-10-16T08:34:54;18.98;;;6.28;;
71125;SDS011;58785;55.566;38.058;2022-10-16T08:37:20;15.20;;;6.07;;
71125;SDS011;58785;55.566;38.058;2022-10-16T08:39:45;34.63;;;8.60;;
71125;SDS011;58785;55.566;38.058;2022-10-16T08:47:35;9.05;;;3.83;;
71125;SDS011;58785;55.566;38.058;2022-10-16T08:50:21;11.48;;;4.55;;
71125;SDS011;58785;55.566;38.058;2022-10-16T08:58:26;8.80;;;3.50;;
71125;SDS011;58785;55.566;38.058;2022-10-16T09:00:54;12.93;;;4.60;;
71125;SDS011;58785;55.566;38.058;2022-10-16T09:09:01;7.97;;;3.60;;
71125;SDS011;58785;55.566;38.058;2022-10-16T09:14:33;7.75;;;2.85;;
71125;SDS011;58785;55.566;38.058;2022-10-16T09:17:20;9.07;;;3.30;;
71125;SDS011;58785;55.566;38.058;2022-10-16T09:20:13;9.18;;;3.33;;
71125;SDS011;58785;55.566;38.058;2022-10-16T09:25:30;7.53;;;2.60;;
71125;SDS011;58785;55.566;38.058;2022-10-16T09:27:57;15.98;;;3.00;;
71125;SDS011;58785;55.566;38.058;2022-10-16T09:30:25;8.35;;;3.30;;
71125;SDS011;58785;55.566;38.058;2022-10-16T09:32:53;11.73;;;3.85;;
71125;SDS011;58785;55.566;38.058;2022-10-16T09:35:20;8.77;;;2.92;;
71125;SDS011;58785;55.566;38.058;2022-10-16T09:37:52;11.60;;;2.93;;
71125;SDS011;58785;55.566;38.058;2022-10-16T09:40:33;9.15;;;3.17;;
71125;SDS011;58785;55.566;38.058;2022-10-16T09:43:20;8.60;;;3.50;;
71125;SDS011;58785;55.566;38.058;2022-10-16T09:48:29;11.80;;;4.05;;
71125;SDS011;58785;55.566;38.058;2022-10-16T09:51:18;10.87;;;3.93;;
71125;SDS011;58785;55.566;38.058;2022-10-16T09:53:48;12.50;;;4.43;;
71125;SDS011;58785;55.566;38.058;2022-10-16T09:56:24;10.70;;;4.20;;
71125;SDS011;58785;55.566;38.058;2022-10-16T09:58:57;8.50;;;2.70;;
71125;SDS011;58785;55.566;38.058;2022-10-16T10:01:26;10.00;;;2.80;;
71125;SDS011;58785;55.566;38.058;2022-10-16T10:03:57;7.35;;;2.63;;
71125;SDS011;58785;55.566;38.058;2022-10-16T10:06:31;7.20;;;2.60;;
71125;SDS011;58785;55.566;38.058;2022-10-16T10:09:05;8.13;;;3.00;;
71125;SDS011;58785;55.566;38.058;2022-10-16T10:11:54;22.83;;;7.33;;
71125;SDS011;58785;55.566;38.058;2022-10-16T10:19:37;10.25;;;3.08;;
71125;SDS011;58785;55.566;38.058;2022-10-16T10:22:17;8.90;;;3.05;;
71125;SDS011;58785;55.566;38.058;2022-10-16T10:27:51;6.28;;;2.20;;
71125;SDS011;58785;55.566;38.058;2022-10-16T10:35:42;7.13;;;2.47;;
71125;SDS011;58785;55.566;38.058;2022-10-16T10:45:44;7.65;;;2.10;;
71125;SDS011;58785;55.566;38.058;2022-10-16T10:53:26;10.32;;;3.00;;
71125;SDS011;58785;55.566;38.058;2022-10-16T11:04:46;8.60;;;2.35;;
71125;SDS011;58785;55.566;38.058;2022-10-16T11:07:26;7.63;;;2.10;;
71125;SDS011;58785;55.566;38.058;2022-10-16T11:12:59;8.35;;;2.53;;
71125;SDS011;58785;55.566;38.058;2022-10-16T11:15:44;8.63;;;2.03;;
71125;SDS011;58785;55.566;38.058;2022-10-16T11:18:19;9.35;;;3.22;;
71125;SDS011;58785;55.566;38.058;2022-10-16T11:20:50;9.77;;;2.88;;
71125;SDS011;58785;55.566;38.058;2022-10-16T11:23:23;9.85;;;3.00;;
71125;SDS011;58785;55.566;38.058;2022-10-16T11:25:54;8.32;;;2.40;;
71125;SDS011;58785;55.566;38.058;2022-10-16T11:28:25;12.73;;;3.00;;
71125;SDS011;58785;55.566;38.058;2022-10-16T11:39:22;6.88;;;2.28;;
71125;SDS011;58785;55.566;38.058;2022-10-16T11:41:52;11.53;;;2.40;;
71125;SDS011;58785;55.566;38.058;2022-10-16T11:47:51;8.82;;;2.97;;
71125;SDS011;58785;55.566;38.058;2022-10-16T11:56:01;6.77;;;2.17;;
71125;SDS011;58785;55.566;38.058;2022-10-16T12:01:31;10.90;;;2.85;;
71125;SDS011;58785;55.566;38.058;2022-10-16T12:04:26;11.05;;;2.78;;
71125;SDS011;58785;55.566;38.058;2022-10-16T12:07:11;10.57;;;3.10;;
71125;SDS011;58785;55.566;38.058;2022-10-16T12:09:41;10.05;;;2.70;;
71125;SDS011;58785;55.566;38.058;2022-10-16T12:12:27;11.73;;;3.00;;
71125;SDS011;58785;55.566;38.058;2022-10-16T12:15:03;9.85;;;2.63;;
71125;SDS011;58785;55.566;38.058;2022-10-16T12:17:45;17.63;;;5.38;;
71125;SDS011;58785;55.566;38.058;2022-10-16T12:22:36;12.03;;;3.80;;
71125;SDS011;58785;55.566;38.058;2022-10-16T12:25:17;9.48;;;2.22;;
71125;SDS011;58785;55.566;38.058;2022-10-16T12:27:46;6.65;;;2.58;;
71125;SDS011;58785;55.566;38.058;2022-10-16T12:30:40;7.72;;;2.42;;
71125;SDS011;58785;55.566;38.058;2022-10-16T12:36:08;9.90;;;2.50;;
71125;SDS011;58785;55.566;38.058;2022-10-16T12:38:50;9.38;;;2.92;;
71125;SDS011;58785;55.566;38.058;2022-10-16T12:41:28;9.63;;;3.10;;
71125;SDS011;58785;55.566;38.058;2022-10-16T12:43:59;18.15;;;8.27;;
71125;SDS011;58785;55.566;38.058;2022-10-16T12:49:04;16.13;;;3.95;;
71125;SDS011;58785;55.566;38.058;2022-10-16T12:54:20;8.95;;;3.50;;
71125;SDS011;58785;55.566;38.058;2022-10-16T13:05:35;12.68;;;4.55;;
71125;SDS011;58785;55.566;38.058;2022-10-16T13:11:02;7.70;;;3.13;;
71125;SDS011;58785;55.566;38.058;2022-10-16T13:14:03;10.10;;;3.90;;
71125;SDS011;58785;55.566;38.058;2022-10-16T13:20:01;11.02;;;4.32;;
71125;SDS011;58785;55.566;38.058;2022-10-16T13:28:00;13.40;;;4.93;;
71125;SDS011;58785;55.566;38.058;2022-10-16T13:30:27;12.70;;;4.78;;
71125;SDS011;58785;55.566;38.058;2022-10-16T13:33:05;9.63;;;4.43;;
71125;SDS011;58785;55.566;38.058;2022-10-16T13:35:46;12.55;;;4.18;;
71125;SDS011;58785;55.566;38.058;2022-10-16T13:40:59;13.40;;;4.80;;
71125;SDS011;58785;55.566;38.058;2022-10-16T13:46:23;8.88;;;3.08;;
71125;SDS011;58785;55.566;38.058;2022-10-16T13:49:22;14.35;;;3.70;;
71125;SDS011;58785;55.566;38.058;2022-10-16T13:51:53;13.30;;;4.30;;
71125;SDS011;58785;55.566;38.058;2022-10-16T13:54:24;21.00;;;6.43;;
71125;SDS011;58785;55.566;38.058;2022-10-16T13:56:50;16.05;;;6.50;;
71125;SDS011;58785;55.566;38.058;2022-10-16T13:59:23;16.30;;;5.97;;
71125;SDS011;58785;55.566;38.058;2022-10-16T14:01:53;18.25;;;7.22;;
71125;SDS011;58785;55.566;38.058;2022-10-16T14:04:22;18.80;;;6.67;;
71125;SDS011;58785;55.566;38.058;2022-10-16T14:06:50;23.25;;;8.23;;
71125;SDS011;58785;55.566;38.058;2022-10-16T14:09:21;23.98;;;8.70;;
71125;SDS011;58785;55.566;38.058;2022-10-16T14:11:53;25.67;;;10.23;;
71125;SDS011;58785;55.566;38.058;2022-10-16T14:14:22;25.02;;;10.52;;
71125;SDS011;58785;55.566;38.058;2022-10-16T14:16:48;33.70;;;11.93;;
71125;SDS011;58785;55.566;38.058;2022-10-16T14:21:48;34.92;;;11.18;;
71125;SDS011;58785;55.566;38.058;2022-10-16T14:24:48;27.95;;;9.10;;
71125;SDS011;58785;55.566;38.058;2022-10-16T14:32:41;17.63;;;5.90;;
71125;SDS011;58785;55.566;38.058;2022-10-16T14:35:24;17.98;;;5.47;;
71125;SDS011;58785;55.566;38.058;2022-10-16T14:37:54;21.58;;;5.68;;
71125;SDS011;58785;55.566;38.058;2022-10-16T14:40:23;16.43;;;5.77;;
71125;SDS011;58785;55.566;38.058;2022-10-16T14:42:54;21.17;;;5.90;;
71125;SDS011;58785;55.566;38.058;2022-10-16T14:45:24;16.52;;;6.43;;
71125;SDS011;58785;55.566;38.058;2022-10-16T14:47:57;19.10;;;5.05;;
71125;SDS011;58785;55.566;38.058;2022-10-16T14:50:25;21.95;;;5.25;;
71125;SDS011;58785;55.566;38.058;2022-10-16T14:52:50;20.17;;;6.07;;
71125;SDS011;58785;55.566;38.058;2022-10-16T14:55:16;12.88;;;4.30;;
71125;SDS011;58785;55.566;38.058;2022-10-16T14:57:43;11.25;;;4.20;;
71125;SDS011;58785;55.566;38.058;2022-10-16T15:00:13;12.73;;;4.03;;
71125;SDS011;58785;55.566;38.058;2022-10-16T15:02:47;13.35;;;4.88;;
71125;SDS011;58785;55.566;38.058;2022-10-16T15:05:21;18.10;;;4.93;;
71125;SDS011;58785;55.566;38.058;2022-10-16T15:07:50;18.38;;;4.78;;
71125;SDS011;58785;55.566;38.058;2022-10-16T15:10:16;20.48;;;4.30;;
71125;SDS011;58785;55.566;38.058;2022-10-16T15:12:43;13.87;;;4.13;;
71125;SDS011;58785;55.566;38.058;2022-10-16T15:18:03;18.48;;;3.97;;
71125;SDS011;58785;55.566;38.058;2022-10-16T15:20:30;19.85;;;4.43;;
71125;SDS011;58785;55.566;38.058;2022-10-16T15:23:02;13.10;;;4.50;;
71125;SDS011;58785;55.566;38.058;2022-10-16T15:25:39;20.70;;;7.00;;
71125;SDS011;58785;55.566;38.058;2022-10-16T15:28:17;27.50;;;9.55;;
71125;SDS011;58785;55.566;38.058;2022-10-16T15:30:44;30.60;;;9.48;;
71125;SDS011;58785;55.566;38.058;2022-10-16T15:33:12;30.58;;;10.30;;
71125;SDS011;58785;55.566;38.058;2022-10-16T15:35:45;27.92;;;11.18;;
71125;SDS011;58785;55.566;38.058;2022-10-16T15:38:13;32.17;;;10.30;;
71125;SDS011;58785;55.566;38.058;2022-10-16T15:40:40;28.30;;;9.40;;
71125;SDS011;58785;55.566;38.058;2022-10-16T15:43:06;27.35;;;9.35;;
71125;SDS011;58785;55.566;38.058;2022-10-16T15:45:32;26.23;;;9.63;;
71125;SDS011;58785;55.566;38.058;2022-10-16T15:47:58;22.38;;;8.13;;
71125;SDS011;58785;55.566;38.058;2022-10-16T15:50:24;28.77;;;8.00;;
71125;SDS011;58785;55.566;38.058;2022-10-16T15:52:50;18.45;;;7.25;;
71125;SDS011;58785;55.566;38.058;2022-10-16T15:55:16;20.80;;;6.50;;
71125;SDS011;58785;55.566;38.058;2022-10-16T15:57:43;17.45;;;6.30;;
71125;SDS011;58785;55.566;38.058;2022-10-16T16:00:17;19.77;;;6.57;;
71125;SDS011;58785;55.566;38.058;2022-10-16T16:02:51;17.85;;;6.85;;
71125;SDS011;58785;55.566;38.058;2022-10-16T16:05:18;16.02;;;6.65;;
71125;SDS011;58785;55.566;38.058;2022-10-16T16:07:44;17.50;;;5.63;;
71125;SDS011;58785;55.566;38.058;2022-10-16T16:10:10;14.65;;;5.97;;
71125;SDS011;58785;55.566;38.058;2022-10-16T16:12:38;17.67;;;6.03;;
71125;SDS011;58785;55.566;38.058;2022-10-16T16:15:06;15.90;;;5.35;;
71125;SDS011;58785;55.566;38.058;2022-10-16T16:17:34;17.43;;;6.47;;
71125;SDS011;58785;55.566;38.058;2022-10-16T16:20:02;25.40;;;7.75;;
71125;SDS011;58785;55.566;38.058;2022-10-16T16:22:29;30.15;;;9.90;;
71125;SDS011;58785;55.566;38.058;2022-10-16T16:24:55;35.13;;;11.10;;
71125;SDS011;58785;55.566;38.058;2022-10-16T16:27:23;46.42;;;12.15;;
71125;SDS011;58785;55.566;38.058;2022-10-16T16:29:50;53.30;;;17.38;;
71125;SDS011;58785;55.566;38.058;2022-10-16T16:32:15;84.82;;;27.10;;
71125;SDS011;58785;55.566;38.058;2022-10-16T16:34:41;125.80;;;37.20;;
71125;SDS011;58785;55.566;38.058;2022-10-16T16:37:06;139.37;;;43.33;;
71125;SDS011;58785;55.566;38.058;2022-10-16T16:39:32;135.00;;;42.25;;
71125;SDS011;58785;55.566;38.058;2022-10-16T16:41:58;149.20;;;46.95;;
71125;SDS011;58785;55.566;38.058;2022-10-16T16:44:25;164.32;;;52.95;;
71125;SDS011;58785;55.566;38.058;2022-10-16T16:46:53;196.30;;;55.83;;
71125;SDS011;58785;55.566;38.058;2022-10-16T16:49:19;189.88;;;48.60;;
71125;SDS011;58785;55.566;38.058;2022-10-16T16:51:45;219.27;;;53.83;;
71125;SDS011;58785;55.566;38.058;2022-10-16T16:54:11;124.50;;;36.00;;
71125;SDS011;58785;55.566;38.058;2022-10-16T16:56:38;100.75;;;28.02;;
71125;SDS011;58785;55.566;38.058;2022-10-16T16:59:04;69.10;;;23.38;;
71125;SDS011;58785;55.566;38.058;2022-10-16T17:01:30;62.30;;;20.40;;
71125;SDS011;58785;55.566;38.058;2022-10-16T17:03:57;49.30;;;15.40;;